Time;durP1;ratioP1;P1;durP2;ratioP2;P2;SDS_P1;SDS_P2;PMS_P1;PMS_P2;Temp;Humidity;BMP_temperature;BMP_pressure;BME280_temperature;BME280_humidity;BME280_pressure;Samples;Min_cycle;Max_cycle;Signal;HPM_P1;HPM_P2
2023/04/10 00:02:15;;;;;;;11.65;10.55;;;6.60;99.90;;;;;;6061143;23;20193;-66
2023/04/10 00:04:42;;;;;;;10.93;9.93;;;6.60;99.90;;;;;;6052579;23;20195;-66
2023/04/10 00:07:11;;;;;;;11.45;10.35;;;6.60;99.90;;;;;;6059389;23;20208;-66
2023/04/10 00:09:38;;;;;;;10.95;9.95;;;6.60;99.90;;;;;;6058413;23;20407;-66
2023/04/10 00:12:06;;;;;;;12.25;11.15;;;6.50;99.90;;;;;;6047313;23;20193;-66
2023/04/10 00:14:33;;;;;;;10.82;9.82;;;6.60;99.90;;;;;;6057216;23;20188;-66
2023/04/10 00:17:00;;;;;;;11.68;10.45;;;6.50;99.90;;;;;;6052525;23;20289;-66
2023/04/10 00:19:27;;;;;;;12.43;11.23;;;6.50;99.90;;;;;;6058076;23;20193;-66
2023/04/10 00:21:55;;;;;;;12.18;10.93;;;6.50;99.90;;;;;;6060620;23;20197;-66
2023/04/10 00:24:23;;;;;;;11.52;10.50;;;6.50;99.90;;;;;;6058063;23;20190;-66
2023/04/10 00:26:50;;;;;;;11.52;10.43;;;6.50;99.90;;;;;;6055461;23;20209;-66
2023/04/10 00:29:17;;;;;;;11.73;10.57;;;6.60;99.90;;;;;;6061092;23;20213;-66
2023/04/10 00:31:44;;;;;;;11.73;10.63;;;6.50;99.90;;;;;;6052523;23;20877;-66
2023/04/10 00:34:12;;;;;;;12.70;11.50;;;6.60;99.90;;;;;;6044486;23;20197;-66
2023/04/10 00:36:39;;;;;;;13.20;11.90;;;6.60;99.90;;;;;;6060640;23;20212;-66
2023/04/10 00:39:07;;;;;;;11.32;10.15;;;6.60;99.90;;;;;;6056360;23;20290;-66
2023/04/10 00:41:36;;;;;;;12.05;10.88;;;6.50;99.90;;;;;;6058945;23;20217;-67
2023/04/10 00:44:03;;;;;;;10.95;9.95;;;6.50;99.90;;;;;;6059794;23;20189;-66
2023/04/10 00:46:31;;;;;;;12.35;11.05;;;6.50;99.90;;;;;;6056479;23;20236;-66
2023/04/10 00:48:58;;;;;;;12.10;10.93;;;6.60;99.90;;;;;;6056706;23;20288;-66
2023/04/10 00:51:25;;;;;;;11.88;10.77;;;6.60;99.90;;;;;;6059712;23;20228;-66
2023/04/10 00:53:53;;;;;;;11.50;10.38;;;6.60;99.90;;;;;;6059534;23;20615;-66
2023/04/10 00:56:21;;;;;;;11.93;10.82;;;6.60;99.90;;;;;;6054172;23;20681;-66
2023/04/10 00:58:49;;;;;;;11.13;10.10;;;6.60;99.90;;;;;;6057987;23;20467;-66
2023/04/10 01:01:16;;;;;;;12.52;11.23;;;6.60;99.90;;;;;;6056435;23;20192;-66
2023/04/10 01:03:44;;;;;;;11.90;10.80;;;6.60;99.90;;;;;;6060659;23;20194;-66
2023/04/10 01:06:17;;;;;;;12.40;11.10;;;6.50;99.90;;;;;;6053630;23;20209;-66
2023/04/10 01:08:53;;;;;;;12.35;11.25;;;6.50;99.90;;;;;;6059443;23;20595;-66
2023/04/10 01:11:40;;;;;;;11.18;10.07;;;6.50;99.90;;;;;;6058354;23;20362;-66
2023/04/10 01:14:16;;;;;;;13.07;11.82;;;6.40;99.90;;;;;;6043165;23;20268;-66
2023/04/10 01:16:51;;;;;;;11.57;10.43;;;6.40;99.90;;;;;;6058638;23;20359;-66
2023/04/10 01:19:29;;;;;;;12.75;11.45;;;6.30;99.90;;;;;;6045414;23;20205;-66
2023/04/10 01:21:56;;;;;;;11.95;10.75;;;6.20;99.90;;;;;;6053373;23;20299;-66
2023/04/10 01:24:42;;;;;;;12.95;11.65;;;6.20;99.90;;;;;;6061326;23;20200;-67
2023/04/10 01:27:20;;;;;;;11.38;10.23;;;6.10;99.90;;;;;;6050072;23;20209;-66
2023/04/10 01:29:55;;;;;;;11.70;10.50;;;6.10;99.90;;;;;;6059676;23;20743;-66
2023/04/10 01:32:24;;;;;;;12.35;11.15;;;6.10;99.90;;;;;;6054735;23;20184;-66
2023/04/10 01:34:54;;;;;;;11.55;10.35;;;6.00;99.90;;;;;;6055364;23;20192;-67
2023/04/10 01:37:24;;;;;;;12.00;10.90;;;6.00;99.90;;;;;;6054620;23;20334;-66
2023/04/10 01:39:55;;;;;;;11.32;10.25;;;6.00;99.90;;;;;;6050672;23;20190;-66
2023/04/10 01:42:23;;;;;;;12.00;10.80;;;5.90;99.90;;;;;;6055437;23;20227;-66
2023/04/10 01:44:53;;;;;;;11.65;10.55;;;5.90;99.90;;;;;;6056572;23;20407;-66
2023/04/10 01:47:21;;;;;;;12.95;11.40;;;5.90;99.90;;;;;;6056541;23;20194;-66
2023/04/10 01:49:50;;;;;;;11.95;10.75;;;5.90;99.90;;;;;;6052904;23;20927;-66
2023/04/10 01:52:19;;;;;;;11.93;10.82;;;5.80;99.90;;;;;;6057672;23;20486;-66
2023/04/10 01:54:47;;;;;;;11.93;10.68;;;5.80;99.90;;;;;;6056228;23;20842;-67
2023/04/10 01:57:15;;;;;;;11.70;10.55;;;5.80;99.90;;;;;;6058913;23;20211;-66
2023/04/10 01:59:43;;;;;;;12.65;11.35;;;5.80;99.90;;;;;;6063538;23;20204;-66
2023/04/10 02:02:11;;;;;;;12.18;10.98;;;5.80;99.90;;;;;;6049426;23;20195;-66
2023/04/10 02:04:39;;;;;;;12.23;11.02;;;5.90;99.90;;;;;;6060498;23;20223;-66
2023/04/10 02:07:10;;;;;;;12.25;11.00;;;5.80;99.90;;;;;;6053206;23;20228;-66
2023/04/10 02:09:47;;;;;;;12.02;10.88;;;5.80;99.90;;;;;;6056518;23;20504;-66
2023/04/10 02:12:18;;;;;;;12.75;11.45;;;5.80;99.90;;;;;;6049390;23;20203;-66
2023/04/10 02:14:47;;;;;;;13.07;11.73;;;5.90;99.90;;;;;;6058399;23;20280;-66
2023/04/10 02:17:20;;;;;;;11.15;10.05;;;5.80;99.90;;;;;;6061371;23;20216;-66
2023/04/10 02:19:50;;;;;;;10.82;9.80;;;5.80;99.90;;;;;;6058929;23;20203;-67
2023/04/10 02:22:17;;;;;;;12.80;11.55;;;5.80;99.90;;;;;;6058616;23;20291;-66
2023/04/10 02:24:45;;;;;;;12.15;10.95;;;5.70;99.90;;;;;;6041532;23;20193;-66
2023/04/10 02:27:12;;;;;;;11.45;10.43;;;5.70;99.90;;;;;;6047710;23;20209;-66
2023/04/10 02:29:39;;;;;;;11.43;10.27;;;5.80;99.90;;;;;;6054895;23;20246;-66
2023/04/10 02:32:06;;;;;;;11.10;10.00;;;5.70;99.90;;;;;;6050849;23;20194;-66
2023/04/10 02:34:35;;;;;;;12.10;10.90;;;5.70;99.90;;;;;;6050880;23;20185;-66
2023/04/10 02:37:02;;;;;;;11.68;10.57;;;5.70;99.90;;;;;;6056923;23;20209;-66
2023/04/10 02:39:29;;;;;;;11.65;10.52;;;5.70;99.90;;;;;;6060164;23;20193;-66
2023/04/10 02:41:56;;;;;;;12.25;11.15;;;5.70;99.90;;;;;;6059341;23;20659;-66
2023/04/10 02:44:23;;;;;;;11.65;10.55;;;5.70;99.90;;;;;;6051952;23;20268;-67
2023/04/10 02:46:50;;;;;;;10.43;9.52;;;5.70;99.90;;;;;;6055700;23;20213;-67
2023/04/10 02:49:17;;;;;;;11.68;10.48;;;5.70;99.90;;;;;;6060165;23;20255;-66
2023/04/10 02:51:45;;;;;;;10.85;9.85;;;5.70;99.90;;;;;;6053806;23;20189;-66
2023/04/10 02:54:12;;;;;;;11.55;10.45;;;5.80;99.90;;;;;;6055755;23;20188;-66
2023/04/10 02:56:39;;;;;;;10.90;9.80;;;5.80;99.90;;;;;;6056962;23;20680;-67
2023/04/10 02:59:06;;;;;;;12.68;10.20;;;5.80;99.90;;;;;;6061367;23;20247;-66
2023/04/10 03:01:33;;;;;;;11.05;9.90;;;5.80;99.90;;;;;;6055159;23;20193;-66
2023/04/10 03:04:02;;;;;;;11.02;10.02;;;5.80;99.90;;;;;;6051377;23;20695;-66
2023/04/10 03:06:29;;;;;;;11.38;10.27;;;5.80;99.90;;;;;;6058656;23;20205;-66
2023/04/10 03:08:57;;;;;;;11.63;10.52;;;5.80;99.90;;;;;;6061021;23;20276;-66
2023/04/10 03:11:25;;;;;;;11.55;10.48;;;5.80;99.90;;;;;;6054676;23;20688;-67
2023/04/10 03:13:51;;;;;;;11.60;10.52;;;5.70;99.90;;;;;;6053015;23;20188;-66
2023/04/10 03:16:18;;;;;;;10.93;9.88;;;5.70;99.90;;;;;;6060981;23;20239;-66
2023/04/10 03:18:46;;;;;;;11.98;10.77;;;5.70;99.90;;;;;;6046010;23;20868;-66
2023/04/10 03:21:13;;;;;;;11.40;10.30;;;5.60;99.90;;;;;;6060815;23;20235;-66
2023/04/10 03:23:40;;;;;;;11.27;10.23;;;5.40;99.90;;;;;;6060833;23;20251;-66
2023/04/10 03:26:09;;;;;;;12.25;11.05;;;5.40;99.90;;;;;;6059389;23;20609;-66
2023/04/10 03:28:36;;;;;;;11.32;10.15;;;5.20;99.90;;;;;;6060136;23;20251;-66
2023/04/10 03:31:03;;;;;;;10.80;9.70;;;5.20;99.90;;;;;;6055446;23;20304;-66
2023/04/10 03:33:31;;;;;;;10.45;9.45;;;5.20;99.90;;;;;;6055643;23;20200;-66
2023/04/10 03:35:58;;;;;;;12.15;10.95;;;5.10;99.90;;;;;;6049796;23;20304;-66
2023/04/10 03:38:25;;;;;;;11.00;9.90;;;5.10;99.90;;;;;;6055811;23;20228;-66
2023/04/10 03:40:52;;;;;;;12.35;11.15;;;5.00;99.90;;;;;;6060578;23;20199;-66
2023/04/10 03:43:21;;;;;;;12.43;11.13;;;4.90;99.90;;;;;;6061025;23;20196;-66
2023/04/10 03:45:48;;;;;;;12.18;10.40;;;4.90;99.90;;;;;;6051942;23;20243;-66
2023/04/10 03:48:16;;;;;;;10.75;9.73;;;4.90;99.90;;;;;;6059095;23;20195;-66
2023/04/10 03:50:43;;;;;;;12.15;10.88;;;4.90;99.90;;;;;;6058903;23;20217;-66
2023/04/10 03:53:10;;;;;;;11.55;10.40;;;4.90;99.90;;;;;;6057137;23;20231;-66
2023/04/10 03:55:38;;;;;;;11.95;10.80;;;4.90;99.90;;;;;;6057359;23;20278;-66
2023/04/10 03:58:05;;;;;;;11.10;10.00;;;4.90;99.90;;;;;;6058993;23;20667;-66
2023/04/10 04:00:34;;;;;;;11.65;10.55;;;4.90;99.90;;;;;;6056513;23;20192;-66
2023/04/10 04:03:03;;;;;;;11.07;10.00;;;4.90;99.90;;;;;;6054745;23;20271;-66
2023/04/10 04:05:30;;;;;;;11.68;10.50;;;4.90;99.90;;;;;;6058890;23;20208;-66
2023/04/10 04:07:57;;;;;;;12.00;10.48;;;4.90;99.90;;;;;;6056702;23;20193;-67
2023/04/10 04:10:24;;;;;;;11.48;10.38;;;4.90;99.90;;;;;;6054367;23;20227;-67
2023/04/10 04:12:51;;;;;;;11.05;10.00;;;4.90;99.90;;;;;;6060478;23;20617;-66
2023/04/10 04:15:20;;;;;;;10.45;9.50;;;4.90;99.90;;;;;;6060693;23;20212;-66
2023/04/10 04:17:49;;;;;;;10.68;9.57;;;4.90;99.90;;;;;;6059902;23;20193;-67
2023/04/10 04:20:16;;;;;;;10.95;9.85;;;4.90;99.90;;;;;;6048730;23;20239;-67
2023/04/10 04:22:42;;;;;;;11.05;9.88;;;4.90;99.90;;;;;;6045557;23;20228;-67
2023/04/10 04:25:10;;;;;;;11.40;10.30;;;4.90;99.90;;;;;;6038802;23;20289;-66
2023/04/10 04:27:37;;;;;;;12.30;10.52;;;4.90;99.90;;;;;;6047562;23;20211;-66
2023/04/10 04:30:05;;;;;;;11.35;10.25;;;4.90;99.90;;;;;;6059800;23;20212;-66
2023/04/10 04:32:33;;;;;;;11.57;10.40;;;4.90;99.90;;;;;;6058528;23;20203;-67
2023/04/10 04:35:01;;;;;;;10.73;9.73;;;4.90;99.90;;;;;;6059904;23;20291;-66
2023/04/10 04:37:28;;;;;;;10.93;9.90;;;4.90;99.90;;;;;;6055972;23;20227;-66
2023/04/10 04:39:55;;;;;;;11.57;10.38;;;4.90;99.90;;;;;;6057071;23;20656;-67
2023/04/10 04:42:22;;;;;;;10.90;9.80;;;4.90;99.90;;;;;;6042553;23;20276;-67
2023/04/10 04:44:50;;;;;;;11.13;10.02;;;4.90;99.90;;;;;;6053837;23;20221;-66
2023/04/10 04:47:17;;;;;;;10.85;9.75;;;4.90;99.90;;;;;;6052064;23;20661;-66
2023/04/10 04:49:44;;;;;;;10.30;9.30;;;4.90;99.90;;;;;;6057468;23;20220;-66
2023/04/10 04:52:12;;;;;;;10.45;9.45;;;4.90;99.90;;;;;;6050328;23;20730;-66
2023/04/10 04:54:39;;;;;;;10.73;9.73;;;4.90;99.90;;;;;;6059125;23;20212;-66
2023/04/10 04:57:07;;;;;;;10.05;9.05;;;4.90;99.90;;;;;;6061237;23;20228;-67
2023/04/10 04:59:34;;;;;;;9.98;9.00;;;4.80;99.90;;;;;;6059972;23;20697;-66
2023/04/10 05:02:01;;;;;;;10.68;9.63;;;4.80;99.90;;;;;;6056013;23;20624;-66
2023/04/10 05:04:28;;;;;;;10.13;9.05;;;4.80;99.90;;;;;;6057065;23;20308;-66
2023/04/10 05:06:55;;;;;;;10.73;9.63;;;4.70;99.90;;;;;;6059273;23;20188;-66
2023/04/10 05:09:24;;;;;;;10.52;9.43;;;4.70;99.90;;;;;;6063999;23;20236;-66
2023/04/10 05:11:53;;;;;;;11.32;10.13;;;4.60;99.90;;;;;;6054460;23;20217;-66
2023/04/10 05:14:21;;;;;;;10.10;9.10;;;4.60;99.90;;;;;;6044887;23;20217;-66
2023/04/10 05:16:48;;;;;;;10.38;9.27;;;4.50;99.90;;;;;;6043177;23;20271;-66
2023/04/10 05:19:15;;;;;;;10.75;9.65;;;4.50;99.90;;;;;;6051783;23;20609;-66
2023/04/10 05:21:42;;;;;;;11.23;10.02;;;4.60;99.90;;;;;;6058958;23;20192;-66
2023/04/10 05:24:09;;;;;;;11.23;9.60;;;4.50;99.90;;;;;;6059352;23;20703;-67
2023/04/10 05:26:37;;;;;;;9.98;8.95;;;4.60;99.90;;;;;;6056101;23;20193;-66
2023/04/10 05:29:04;;;;;;;11.18;10.07;;;4.60;99.90;;;;;;6066194;23;20185;-66
2023/04/10 05:31:31;;;;;;;11.02;9.93;;;4.70;99.90;;;;;;6054925;23;20354;-66
2023/04/10 05:33:58;;;;;;;10.48;9.45;;;4.80;99.90;;;;;;6057351;23;20256;-66
2023/04/10 05:36:26;;;;;;;10.40;9.40;;;4.80;99.90;;;;;;6059552;23;20217;-66
2023/04/10 05:38:53;;;;;;;12.00;10.65;;;4.90;99.90;;;;;;6059912;23;20193;-67
2023/04/10 05:41:20;;;;;;;10.70;9.70;;;5.00;99.90;;;;;;6059544;23;20262;-66
2023/04/10 05:43:49;;;;;;;11.55;10.35;;;5.00;99.90;;;;;;6060167;23;20769;-66
2023/04/10 05:46:17;;;;;;;10.95;9.82;;;5.10;99.90;;;;;;6050427;23;20191;-66
2023/04/10 05:48:43;;;;;;;10.20;9.27;;;5.10;99.90;;;;;;6056165;23;20266;-66
2023/04/10 05:51:11;;;;;;;11.07;9.98;;;5.20;99.90;;;;;;6055137;23;20220;-66
2023/04/10 05:53:38;;;;;;;10.43;9.32;;;5.20;99.90;;;;;;6057064;23;20652;-66
2023/04/10 05:56:06;;;;;;;10.00;9.00;;;5.30;99.90;;;;;;6056488;23;20247;-66
2023/04/10 05:58:33;;;;;;;9.85;8.85;;;5.40;99.90;;;;;;6069021;23;20276;-66
2023/04/10 06:01:02;;;;;;;9.80;8.90;;;5.50;99.90;;;;;;6059436;23;20188;-66
2023/04/10 06:03:29;;;;;;;9.80;8.80;;;5.60;99.90;;;;;;6061448;23;20245;-66
2023/04/10 06:05:57;;;;;;;10.80;9.70;;;5.60;99.90;;;;;;6049933;23;20275;-66
2023/04/10 06:08:24;;;;;;;10.02;9.07;;;5.60;99.90;;;;;;6048028;23;20231;-66
2023/04/10 06:10:51;;;;;;;10.48;9.35;;;5.70;99.90;;;;;;6059406;23;20236;-66
2023/04/10 06:13:18;;;;;;;9.13;8.32;;;5.70;99.90;;;;;;6057454;23;20268;-66
2023/04/10 06:15:45;;;;;;;9.38;8.38;;;5.80;99.90;;;;;;6056187;23;20284;-69
2023/04/10 06:18:13;;;;;;;9.02;8.23;;;5.90;99.90;;;;;;6053713;23;20328;-67
2023/04/10 06:20:41;;;;;;;9.88;8.98;;;6.00;99.90;;;;;;6048355;23;20198;-69
2023/04/10 06:23:08;;;;;;;9.68;8.77;;;6.10;99.90;;;;;;6054098;23;20204;-67
2023/04/10 06:25:35;;;;;;;9.18;8.23;;;6.20;99.90;;;;;;6062538;23;20284;-68
2023/04/10 06:28:02;;;;;;;10.30;9.10;;;6.30;99.90;;;;;;6057100;23;20193;-68
2023/04/10 06:30:29;;;;;;;9.43;8.43;;;6.40;99.90;;;;;;6037852;23;20728;-66
2023/04/10 06:32:56;;;;;;;9.82;8.85;;;6.50;99.90;;;;;;6048769;23;20280;-66
2023/04/10 06:35:26;;;;;;;10.82;9.80;;;6.60;99.90;;;;;;6050255;23;20233;-66
2023/04/10 06:37:53;;;;;;;10.63;8.95;;;6.60;99.90;;;;;;6040725;23;20314;-67
2023/04/10 06:40:20;;;;;;;9.93;8.93;;;6.70;99.90;;;;;;6052536;23;20186;-66
2023/04/10 06:42:47;;;;;;;9.95;8.93;;;6.80;99.90;;;;;;6046945;23;20220;-66
2023/04/10 06:45:14;;;;;;;10.50;9.50;;;6.90;99.90;;;;;;6045364;23;20206;-67
2023/04/10 06:47:41;;;;;;;9.18;8.20;;;7.10;99.90;;;;;;6041199;23;20186;-68
2023/04/10 06:50:09;;;;;;;10.25;9.25;;;7.20;99.90;;;;;;6047784;23;20181;-67
2023/04/10 06:52:37;;;;;;;9.80;8.90;;;7.40;99.90;;;;;;6053833;23;20217;-67
2023/04/10 06:55:05;;;;;;;9.00;8.20;;;7.60;99.90;;;;;;6059352;23;20211;-66
2023/04/10 06:57:32;;;;;;;9.23;8.27;;;7.80;99.90;;;;;;6046270;23;20246;-66
2023/04/10 06:59:59;;;;;;;9.02;8.13;;;8.00;99.90;;;;;;6048558;23;20190;-67
2023/04/10 07:02:26;;;;;;;9.23;8.35;;;8.10;99.90;;;;;;6060328;23;20219;-66
2023/04/10 07:04:53;;;;;;;8.80;8.00;;;8.30;99.90;;;;;;6052491;23;20305;-66
2023/04/10 07:07:21;;;;;;;8.95;8.15;;;8.30;99.90;;;;;;6046288;23;20238;-68
2023/04/10 07:09:49;;;;;;;8.00;7.30;;;8.40;99.90;;;;;;6052619;23;20279;-67
2023/04/10 07:12:16;;;;;;;9.13;8.32;;;8.60;99.90;;;;;;6049817;23;20231;-65
2023/04/10 07:14:43;;;;;;;7.65;6.95;;;8.70;99.90;;;;;;6055593;23;20259;-67
2023/04/10 07:17:10;;;;;;;8.30;7.60;;;9.00;99.90;;;;;;6056141;23;20188;-68
2023/04/10 07:19:37;;;;;;;7.90;7.20;;;9.30;99.90;;;;;;6048886;23;20185;-67
2023/04/10 07:22:04;;;;;;;7.80;7.10;;;9.40;99.90;;;;;;6054567;23;20184;-67
2023/04/10 07:24:31;;;;;;;7.95;7.25;;;9.60;99.90;;;;;;6054351;23;20241;-67
2023/04/10 07:27:00;;;;;;;7.93;7.22;;;9.80;99.90;;;;;;6047196;23;20189;-67
2023/04/10 07:29:28;;;;;;;8.25;7.55;;;10.30;99.90;;;;;;6047596;23;20190;-67
2023/04/10 07:31:55;;;;;;;7.88;7.25;;;10.50;99.90;;;;;;6055739;23;20220;-67
2023/04/10 07:34:22;;;;;;;7.25;6.65;;;10.70;99.90;;;;;;6051096;23;20205;-67
2023/04/10 07:36:50;;;;;;;7.40;6.70;;;10.90;99.90;;;;;;6055339;23;20189;-67
2023/04/10 07:39:17;;;;;;;7.63;6.97;;;11.00;99.90;;;;;;6058194;23;20180;-67
2023/04/10 07:41:44;;;;;;;7.40;6.80;;;11.00;99.90;;;;;;6060377;23;20327;-83
2023/04/10 07:44:13;;;;;;;7.05;6.47;;;11.00;99.90;;;;;;6056854;23;20612;-66
2023/04/10 07:46:40;;;;;;;7.97;7.20;;;11.10;99.90;;;;;;6056477;23;20193;-66
2023/04/10 07:49:07;;;;;;;7.82;7.15;;;11.30;99.90;;;;;;6074081;23;20267;-66
2023/04/10 07:51:34;;;;;;;6.80;6.25;;;11.50;99.90;;;;;;6060891;23;20678;-66
2023/04/10 07:54:03;;;;;;;6.05;5.55;;;11.80;99.90;;;;;;6055422;23;20248;-66
2023/04/10 07:56:30;;;;;;;7.13;6.53;;;12.10;99.90;;;;;;6061205;23;20299;-66
2023/04/10 07:58:59;;;;;;;5.57;5.13;;;12.30;99.90;;;;;;6070101;23;20514;-66
2023/04/10 08:01:27;;;;;;;5.43;5.03;;;12.10;99.90;;;;;;6056692;23;20842;-66
2023/04/10 08:03:55;;;;;;;5.90;5.40;;;12.10;99.90;;;;;;6061006;23;20244;-66
2023/04/10 08:06:22;;;;;;;5.67;5.17;;;12.30;99.90;;;;;;6058238;23;20519;-66
2023/04/10 08:08:51;;;;;;;6.30;5.80;;;12.60;99.90;;;;;;6071064;23;20436;-66
2023/04/10 08:11:26;;;;;;;6.73;6.20;;;12.90;99.90;;;;;;6049887;23;20955;-67
2023/04/10 08:13:54;;;;;;;5.70;5.20;;;13.10;99.90;;;;;;6059936;23;20875;-66
2023/04/10 08:16:23;;;;;;;5.90;5.40;;;13.10;99.90;;;;;;6060342;23;20940;-66
2023/04/10 08:18:52;;;;;;;5.70;5.30;;;13.00;99.90;;;;;;6060810;23;20797;-66
2023/04/10 08:21:19;;;;;;;6.00;5.50;;;12.80;99.90;;;;;;6048165;23;20479;-66
2023/04/10 08:23:46;;;;;;;6.00;5.57;;;12.90;99.90;;;;;;6069879;23;20442;-67
2023/04/10 08:26:13;;;;;;;5.10;4.70;;;12.80;99.90;;;;;;6059365;23;20516;-66
2023/04/10 08:28:45;;;;;;;6.00;5.50;;;13.10;99.80;;;;;;6057340;23;20447;-67
2023/04/10 08:31:12;;;;;;;6.53;6.00;;;13.40;99.30;;;;;;6059634;23;20442;-67
2023/04/10 08:33:39;;;;;;;5.70;5.30;;;13.40;99.50;;;;;;6059912;23;20974;-66
2023/04/10 08:36:08;;;;;;;6.30;5.80;;;13.60;99.40;;;;;;6051969;23;20939;-66
2023/04/10 08:38:35;;;;;;;6.10;5.70;;;13.90;99.80;;;;;;6059661;23;20485;-66
2023/04/10 08:41:03;;;;;;;6.20;5.70;;;14.10;98.50;;;;;;6060971;23;20434;-67
2023/04/10 08:43:30;;;;;;;5.60;5.10;;;14.30;98.30;;;;;;6055418;23;20445;-67
2023/04/10 08:45:57;;;;;;;6.10;5.60;;;14.60;97.70;;;;;;6060617;23;20861;-66
2023/04/10 08:48:30;;;;;;;5.97;5.47;;;14.80;97.30;;;;;;6058470;23;20473;-67
2023/04/10 08:51:03;;;;;;;5.50;5.10;;;15.00;97.50;;;;;;6059807;23;20522;-66
2023/04/10 08:53:36;;;;;;;7.23;6.63;;;15.20;96.80;;;;;;6058703;23;20443;-66
2023/04/10 08:56:05;;;;;;;5.53;5.13;;;15.40;97.00;;;;;;6060594;23;20519;-66
2023/04/10 08:58:32;;;;;;;6.37;5.87;;;15.40;96.90;;;;;;6060466;23;20957;-67
2023/04/10 09:01:00;;;;;;;5.90;5.40;;;15.70;95.50;;;;;;6052266;23;20443;-67
2023/04/10 09:03:28;;;;;;;5.37;5.00;;;15.70;95.40;;;;;;6060716;23;20451;-67
2023/04/10 09:05:56;;;;;;;6.23;5.73;;;15.40;94.50;;;;;;6072816;23;20474;-66
2023/04/10 09:08:23;;;;;;;5.97;5.57;;;15.50;94.50;;;;;;6058251;23;20463;-67
2023/04/10 09:10:51;;;;;;;5.53;5.13;;;15.50;94.30;;;;;;6061905;23;20463;-67
2023/04/10 09:13:35;;;;;;;5.50;5.10;;;15.70;94.30;;;;;;6050899;23;20466;-67
2023/04/10 09:16:03;;;;;;;5.60;5.20;;;15.90;93.90;;;;;;6059746;23;20466;-66
2023/04/10 09:18:47;;;;;;;5.73;5.23;;;16.10;92.80;;;;;;6047687;23;20442;-66
2023/04/10 09:21:17;;;;;;;4.83;4.43;;;16.10;92.60;;;;;;6061148;23;20458;-67
2023/04/10 09:23:45;;;;;;;5.17;4.77;;;16.30;91.90;;;;;;6060790;23;20455;-67
2023/04/10 09:26:29;;;;;;;4.90;4.50;;;16.60;91.80;;;;;;6061190;23;20424;-67
2023/04/10 09:29:01;;;;;;;4.40;4.10;;;16.90;90.50;;;;;;6061323;23;20637;-67
2023/04/10 09:31:33;;;;;;;4.50;4.20;;;17.00;89.50;;;;;;6051597;23;20440;-67
2023/04/10 09:34:12;;;;;;;4.40;4.10;;;17.30;90.00;;;;;;6049715;23;21056;-67
2023/04/10 09:36:41;;;;;;;4.33;4.03;;;17.90;88.50;;;;;;6052090;23;20487;-67
2023/04/10 09:39:10;;;;;;;4.37;4.07;;;18.10;84.20;;;;;;6061571;23;20861;-67
2023/04/10 09:41:49;;;;;;;4.53;4.23;;;18.00;84.40;;;;;;6073234;23;20538;-68
2023/04/10 09:44:19;;;;;;;4.23;3.93;;;17.50;84.30;;;;;;6060872;23;20505;-67
2023/04/10 09:46:48;;;;;;;4.83;4.43;;;17.50;82.70;;;;;;6061576;23;20469;-67
2023/04/10 09:49:15;;;;;;;4.13;3.83;;;17.50;82.70;;;;;;6055549;23;20442;-67
2023/04/10 09:51:42;;;;;;;3.67;3.37;;;16.80;80.80;;;;;;6059290;23;20459;-67
2023/04/10 09:54:09;;;;;;;3.80;3.60;;;16.70;83.30;;;;;;6060628;23;20537;-67
2023/04/10 09:56:39;;;;;;;4.43;4.13;;;17.10;84.40;;;;;;6050326;23;20438;-67
2023/04/10 09:59:08;;;;;;;3.53;3.33;;;17.10;82.20;;;;;;6061637;23;20994;-67
2023/04/10 10:01:39;;;;;;;2.97;2.77;;;17.30;81.70;;;;;;6060448;23;20443;-66
2023/04/10 10:04:08;;;;;;;3.90;3.60;;;17.40;77.00;;;;;;6061062;23;20878;-67
2023/04/10 10:06:36;;;;;;;3.60;3.30;;;17.30;77.50;;;;;;6048238;23;20501;-67
2023/04/10 10:09:04;;;;;;;3.53;3.33;;;17.40;77.90;;;;;;6061336;23;20530;-67
2023/04/10 10:11:34;;;;;;;3.30;3.10;;;17.60;79.20;;;;;;6059943;23;20531;-67
2023/04/10 10:14:04;;;;;;;3.07;2.77;;;17.90;75.40;;;;;;6061079;23;20542;-67
2023/04/10 10:16:37;;;;;;;3.30;3.10;;;18.10;74.40;;;;;;6061342;23;20908;-68
2023/04/10 10:19:10;;;;;;;3.40;3.20;;;18.40;76.50;;;;;;6062039;23;20476;-67
2023/04/10 10:21:39;;;;;;;3.10;2.90;;;18.50;75.00;;;;;;6060372;23;20985;-67
2023/04/10 10:24:09;;;;;;;3.00;2.80;;;18.80;74.20;;;;;;6057024;23;20539;-67
2023/04/10 10:26:39;;;;;;;2.83;2.63;;;18.70;70.30;;;;;;6060475;23;20491;-67
2023/04/10 10:29:09;;;;;;;3.13;2.93;;;18.60;70.40;;;;;;6061355;23;20515;-66
2023/04/10 10:31:38;;;;;;;3.37;3.17;;;18.60;68.20;;;;;;6061357;23;20429;-67
2023/04/10 10:34:07;;;;;;;3.03;2.83;;;18.50;69.10;;;;;;6057234;23;20497;-67
2023/04/10 10:36:35;;;;;;;2.80;2.60;;;18.30;67.70;;;;;;6058883;23;20436;-67
2023/04/10 10:39:21;;;;;;;2.60;2.40;;;18.30;69.40;;;;;;6059364;23;20464;-67
2023/04/10 10:41:56;;;;;;;2.90;2.70;;;18.80;71.40;;;;;;6060138;23;20939;-67
2023/04/10 10:44:32;;;;;;;2.80;2.60;;;19.40;67.00;;;;;;6060580;23;20570;-67
2023/04/10 10:47:09;;;;;;;3.10;2.90;;;19.00;67.30;;;;;;6049572;23;20530;-67
2023/04/10 10:49:52;;;;;;;2.90;2.70;;;19.30;65.90;;;;;;6059402;23;20449;-67
2023/04/10 10:52:41;;;;;;;2.80;2.60;;;18.90;65.40;;;;;;6053126;23;20852;-67
2023/04/10 10:55:31;;;;;;;2.60;2.40;;;18.10;66.70;;;;;;6048674;23;20463;-66
2023/04/10 10:58:00;;;;;;;2.50;2.40;;;17.40;66.40;;;;;;6055244;23;20490;-67
2023/04/10 11:01:17;;;;;;;3.00;2.80;;;17.40;67.10;;;;;;6058211;23;20443;-67
2023/04/10 11:03:46;;;;;;;2.90;2.70;;;17.40;67.10;;;;;;6058470;23;20550;-67
2023/04/10 11:06:18;;;;;;;2.93;2.73;;;17.50;66.80;;;;;;6067022;23;20530;-67
2023/04/10 11:08:46;;;;;;;2.43;2.33;;;17.80;66.90;;;;;;6061006;23;20432;-67
2023/04/10 11:11:18;;;;;;;2.53;2.33;;;18.20;67.70;;;;;;6050507;23;20843;-67
2023/04/10 11:14:12;;;;;;;2.40;2.30;;;18.10;64.40;;;;;;6044148;23;20479;-67
2023/04/10 11:16:45;;;;;;;1.90;1.80;;;18.20;63.80;;;;;;6053850;23;20979;-67
2023/04/10 11:19:16;;;;;;;2.53;2.33;;;18.80;66.50;;;;;;6050986;23;20473;-68
2023/04/10 11:22:06;;;;;;;2.70;2.50;;;19.10;62.70;;;;;;6061475;23;20445;-67
2023/04/10 11:24:59;;;;;;;2.97;2.77;;;19.30;62.90;;;;;;6058897;23;20463;-67
2023/04/10 11:27:47;;;;;;;2.53;2.33;;;19.70;63.00;;;;;;6039374;23;20436;-67
2023/04/10 11:30:32;;;;;;;2.30;2.20;;;19.90;60.20;;;;;;6059991;23;20442;-67
2023/04/10 11:33:00;;;;;;;2.50;2.30;;;20.00;59.10;;;;;;6050069;23;20819;-67
2023/04/10 11:35:30;;;;;;;2.13;2.03;;;20.30;60.00;;;;;;6060935;23;20488;-68
2023/04/10 11:38:11;;;;;;;2.40;2.20;;;20.50;59.00;;;;;;6061219;23;20482;-67
2023/04/10 11:40:54;;;;;;;2.17;2.07;;;20.80;59.00;;;;;;6061024;23;20957;-67
2023/04/10 11:43:21;;;;;;;2.47;2.27;;;21.10;58.00;;;;;;6060232;23;20475;-67
2023/04/10 11:45:48;;;;;;;2.63;2.43;;;21.60;55.50;;;;;;6053794;23;20449;-67
2023/04/10 11:48:16;;;;;;;2.57;2.37;;;21.70;57.00;;;;;;6053579;23;20475;-67
2023/04/10 11:50:44;;;;;;;2.20;2.00;;;21.90;55.90;;;;;;6059927;23;20439;-67
2023/04/10 11:53:20;;;;;;;1.80;1.70;;;22.30;54.90;;;;;;6060160;23;20562;-67
2023/04/10 11:55:47;;;;;;;2.10;2.00;;;22.10;54.80;;;;;;6048419;23;20447;-67
2023/04/10 11:58:25;;;;;;;2.30;2.20;;;22.20;52.60;;;;;;6058990;23;20448;-67
2023/04/10 12:00:59;;;;;;;2.03;1.93;;;22.20;53.40;;;;;;6049339;23;20466;-67
2023/04/10 12:03:38;;;;;;;2.13;2.03;;;22.40;55.10;;;;;;6060942;23;20478;-67
2023/04/10 12:06:08;;;;;;;2.10;2.00;;;22.40;53.70;;;;;;6063709;23;20489;-67
2023/04/10 12:08:37;;;;;;;1.90;1.80;;;22.30;51.90;;;;;;6060829;23;20428;-67
2023/04/10 12:11:04;;;;;;;1.90;1.80;;;21.80;51.30;;;;;;6059285;23;20471;-68
2023/04/10 12:13:32;;;;;;;1.97;1.87;;;21.80;52.10;;;;;;6050646;23;20479;-67
2023/04/10 12:16:01;;;;;;;1.80;1.70;;;22.00;52.30;;;;;;6058177;23;20509;-67
2023/04/10 12:18:29;;;;;;;2.10;1.77;;;22.30;51.00;;;;;;6060796;23;20436;-67
2023/04/10 12:20:57;;;;;;;2.00;1.90;;;22.20;52.10;;;;;;6053619;23;20517;-67
2023/04/10 12:23:27;;;;;;;2.10;2.00;;;22.20;49.40;;;;;;6064428;23;20472;-67
2023/04/10 12:26:10;;;;;;;1.90;1.80;;;22.30;49.10;;;;;;6060426;23;20439;-67
2023/04/10 12:28:39;;;;;;;1.80;1.70;;;22.50;50.30;;;;;;6051372;23;20443;-68
2023/04/10 12:31:07;;;;;;;1.80;1.70;;;22.40;49.10;;;;;;6059060;23;21014;-68
2023/04/10 12:33:34;;;;;;;1.67;1.40;;;22.60;49.80;;;;;;6058738;23;20463;-67
2023/04/10 12:36:01;;;;;;;1.60;1.50;;;23.00;48.20;;;;;;6057521;23;20442;-67
2023/04/10 12:38:40;;;;;;;1.60;1.50;;;23.00;46.50;;;;;;6060845;23;20423;-67
2023/04/10 12:41:10;;;;;;;1.57;1.47;;;22.70;47.00;;;;;;6055159;23;20443;-67
2023/04/10 12:43:39;;;;;;;1.40;1.30;;;22.40;45.50;;;;;;6058198;23;20513;-67
2023/04/10 12:46:07;;;;;;;1.30;1.20;;;21.70;45.70;;;;;;6055972;23;20999;-67
2023/04/10 12:48:34;;;;;;;1.00;1.00;;;21.50;45.40;;;;;;6058614;23;20507;-67
2023/04/10 12:51:02;;;;;;;1.30;1.20;;;21.60;42.60;;;;;;6052586;23;20424;-67
2023/04/10 12:53:29;;;;;;;1.17;1.10;;;21.20;43.20;;;;;;6058630;23;20483;-67
2023/04/10 12:56:03;;;;;;;1.43;1.00;;;20.90;44.20;;;;;;6053887;23;20477;-67
2023/04/10 12:58:31;;;;;;;1.10;1.10;;;20.60;43.60;;;;;;6060577;23;20488;-67